< < Back
Terminal Aerodrome Forecast


Current Version              Previous Versions:   1  2  3  4  5  6  7  8  9  

Terminal Aerodrome Forecast

638
FTUS42 KGSP 131720
TAFAND
TAF
KAND 131720Z 1318/1418 30006G15KT P6SM SKC
      TEMPO 1318/1322 VRB03KT
     FM140200 03004KT P6SM FEW250
     FM141100 08006KT P6SM BKN110=



Latest METAR

672
SAUS70 KWBC 131700 RRE
MTRAND
METAR KAND 131656Z AUTO 00000KT 10SM CLR 04/M11 A3031 RMK AO2 SLP265
T00441111


USA.gov is the U.S. government's official web portal to all federal, state and local government web resources and services.